sensor_id;sensor_type;location;lat;lon;timestamp;pressure;altitude;pressure_sealevel;temperature;humidity
64460;BME280;50828;53.756;21.140;2023-03-25T00:03:43;98538.90;;;8.69;69.11
64460;BME280;50828;53.756;21.140;2023-03-25T00:08:56;98548.19;;;8.59;68.90
64460;BME280;50828;53.756;21.140;2023-03-25T00:14:04;98544.09;;;8.48;69.41
64460;BME280;50828;53.756;21.140;2023-03-25T00:19:12;98535.11;;;8.39;69.37
64460;BME280;50828;53.756;21.140;2023-03-25T00:24:20;98533.30;;;8.31;69.51
64460;BME280;50828;53.756;21.140;2023-03-25T00:29:28;98515.86;;;8.16;69.78
64460;BME280;50828;53.756;21.140;2023-03-25T00:34:36;98522.10;;;8.14;69.90
64460;BME280;50828;53.756;21.140;2023-03-25T00:39:47;98532.55;;;8.12;70.08
64460;BME280;50828;53.756;21.140;2023-03-25T00:44:54;98530.88;;;8.08;70.41
64460;BME280;50828;53.756;21.140;2023-03-25T00:50:02;98526.79;;;8.05;70.46
64460;BME280;50828;53.756;21.140;2023-03-25T00:55:10;98525.45;;;8.01;70.66
64460;BME280;50828;53.756;21.140;2023-03-25T01:00:19;98534.12;;;8.09;70.81
64460;BME280;50828;53.756;21.140;2023-03-25T01:05:26;98524.71;;;8.11;70.85
64460;BME280;50828;53.756;21.140;2023-03-25T01:10:35;98515.65;;;8.14;70.62
64460;BME280;50828;53.756;21.140;2023-03-25T01:15:43;98523.51;;;8.11;71.01
64460;BME280;50828;53.756;21.140;2023-03-25T01:20:52;98525.91;;;8.09;70.82
64460;BME280;50828;53.756;21.140;2023-03-25T01:26:01;98514.37;;;8.08;70.92
64460;BME280;50828;53.756;21.140;2023-03-25T01:31:10;98517.55;;;8.11;71.17
64460;BME280;50828;53.756;21.140;2023-03-25T01:36:18;98517.36;;;8.15;71.33
64460;BME280;50828;53.756;21.140;2023-03-25T01:41:26;98498.65;;;8.17;71.43
64460;BME280;50828;53.756;21.140;2023-03-25T01:46:52;98490.70;;;8.17;71.24
64460;BME280;50828;53.756;21.140;2023-03-25T01:52:03;98500.01;;;8.14;71.16
64460;BME280;50828;53.756;21.140;2023-03-25T01:57:13;98499.79;;;8.12;71.01
64460;BME280;50828;53.756;21.140;2023-03-25T02:02:23;98500.33;;;8.08;71.02
64460;BME280;50828;53.756;21.140;2023-03-25T02:07:43;98497.00;;;7.99;70.39
64460;BME280;50828;53.756;21.140;2023-03-25T02:12:53;98498.54;;;7.93;70.00
64460;BME280;50828;53.756;21.140;2023-03-25T02:18:16;98502.84;;;7.85;69.97
64460;BME280;50828;53.756;21.140;2023-03-25T02:23:58;98500.58;;;7.75;69.70
64460;BME280;50828;53.756;21.140;2023-03-25T02:29:15;98496.84;;;7.66;69.43
64460;BME280;50828;53.756;21.140;2023-03-25T02:34:49;98504.67;;;7.61;69.66
64460;BME280;50828;53.756;21.140;2023-03-25T02:40:07;98502.43;;;7.54;69.34
64460;BME280;50828;53.756;21.140;2023-03-25T02:45:20;98495.66;;;7.49;69.07
64460;BME280;50828;53.756;21.140;2023-03-25T02:50:34;98495.28;;;7.43;69.08
64460;BME280;50828;53.756;21.140;2023-03-25T02:55:45;98490.79;;;7.35;68.76
64460;BME280;50828;53.756;21.140;2023-03-25T03:00:55;98496.21;;;7.29;68.58
64460;BME280;50828;53.756;21.140;2023-03-25T03:06:06;98496.66;;;7.20;68.26
64460;BME280;50828;53.756;21.140;2023-03-25T03:11:16;98497.82;;;7.11;68.40
64460;BME280;50828;53.756;21.140;2023-03-25T03:16:31;98501.88;;;7.04;68.54
64460;BME280;50828;53.756;21.140;2023-03-25T03:21:43;98512.19;;;7.00;68.63
64460;BME280;50828;53.756;21.140;2023-03-25T03:26:54;98520.79;;;6.97;69.06
64460;BME280;50828;53.756;21.140;2023-03-25T03:32:19;98524.25;;;6.94;68.91
64460;BME280;50828;53.756;21.140;2023-03-25T03:37:34;98535.84;;;6.93;69.37
64460;BME280;50828;53.756;21.140;2023-03-25T03:42:45;98538.15;;;6.92;69.38
64460;BME280;50828;53.756;21.140;2023-03-25T03:47:56;98537.27;;;6.92;69.63
64460;BME280;50828;53.756;21.140;2023-03-25T03:53:10;98538.10;;;6.94;69.83
64460;BME280;50828;53.756;21.140;2023-03-25T03:58:22;98537.84;;;6.95;69.71
64460;BME280;50828;53.756;21.140;2023-03-25T04:03:35;98535.04;;;6.99;69.71
64460;BME280;50828;53.756;21.140;2023-03-25T04:08:51;98532.26;;;7.02;70.17
64460;BME280;50828;53.756;21.140;2023-03-25T04:14:04;98533.77;;;7.06;70.33
64460;BME280;50828;53.756;21.140;2023-03-25T04:19:12;98533.25;;;7.10;70.27
64460;BME280;50828;53.756;21.140;2023-03-25T04:24:23;98534.59;;;7.14;70.09
64460;BME280;50828;53.756;21.140;2023-03-25T04:29:31;98539.69;;;7.17;70.50
64460;BME280;50828;53.756;21.140;2023-03-25T04:34:40;98532.73;;;7.17;70.41
64460;BME280;50828;53.756;21.140;2023-03-25T04:39:47;98524.72;;;7.23;70.54
64460;BME280;50828;53.756;21.140;2023-03-25T04:44:55;98522.86;;;7.28;70.83
64460;BME280;50828;53.756;21.140;2023-03-25T04:50:02;98523.77;;;7.34;70.87
64460;BME280;50828;53.756;21.140;2023-03-25T04:55:12;98518.95;;;7.39;71.27
64460;BME280;50828;53.756;21.140;2023-03-25T05:00:24;98519.38;;;7.44;71.48
64460;BME280;50828;53.756;21.140;2023-03-25T05:05:33;98517.91;;;7.49;71.23
64460;BME280;50828;53.756;21.140;2023-03-25T05:10:41;98522.95;;;7.53;71.61
64460;BME280;50828;53.756;21.140;2023-03-25T05:15:49;98518.39;;;7.57;71.83
64460;BME280;50828;53.756;21.140;2023-03-25T05:20:58;98509.08;;;7.60;71.83
64460;BME280;50828;53.756;21.140;2023-03-25T05:26:08;98504.93;;;7.63;71.84
64460;BME280;50828;53.756;21.140;2023-03-25T05:31:17;98502.92;;;7.64;71.90
64460;BME280;50828;53.756;21.140;2023-03-25T05:36:27;98502.99;;;7.66;71.77
64460;BME280;50828;53.756;21.140;2023-03-25T05:41:36;98519.52;;;7.68;71.71
64460;BME280;50828;53.756;21.140;2023-03-25T05:46:46;98518.02;;;7.70;71.81
64460;BME280;50828;53.756;21.140;2023-03-25T05:51:54;98526.28;;;7.72;71.95
64460;BME280;50828;53.756;21.140;2023-03-25T05:57:05;98530.55;;;7.75;72.16
64460;BME280;50828;53.756;21.140;2023-03-25T06:02:15;98537.10;;;7.80;72.28
64460;BME280;50828;53.756;21.140;2023-03-25T06:07:23;98534.79;;;7.87;72.40
64460;BME280;50828;53.756;21.140;2023-03-25T06:12:32;98521.82;;;7.97;72.14
64460;BME280;50828;53.756;21.140;2023-03-25T06:17:45;98524.77;;;8.04;72.34
64460;BME280;50828;53.756;21.140;2023-03-25T06:22:53;98526.21;;;8.13;72.31
64460;BME280;50828;53.756;21.140;2023-03-25T06:28:02;98525.33;;;8.19;72.40
64460;BME280;50828;53.756;21.140;2023-03-25T06:33:11;98530.72;;;8.30;72.69
64460;BME280;50828;53.756;21.140;2023-03-25T06:38:40;98531.66;;;8.41;72.41
64460;BME280;50828;53.756;21.140;2023-03-25T06:43:51;98538.11;;;8.52;72.67
64460;BME280;50828;53.756;21.140;2023-03-25T06:48:59;98534.95;;;8.61;72.75
64460;BME280;50828;53.756;21.140;2023-03-25T06:54:07;98545.33;;;8.70;72.59
64460;BME280;50828;53.756;21.140;2023-03-25T06:59:16;98543.59;;;8.78;72.75
64460;BME280;50828;53.756;21.140;2023-03-25T07:04:24;98544.88;;;8.90;72.79
64460;BME280;50828;53.756;21.140;2023-03-25T07:09:32;98547.68;;;9.02;72.65
64460;BME280;50828;53.756;21.140;2023-03-25T07:14:41;98556.56;;;9.12;72.63
64460;BME280;50828;53.756;21.140;2023-03-25T07:19:52;98569.30;;;9.23;72.37
64460;BME280;50828;53.756;21.140;2023-03-25T07:25:01;98564.08;;;9.31;72.59
64460;BME280;50828;53.756;21.140;2023-03-25T07:30:11;98555.16;;;9.42;72.27
64460;BME280;50828;53.756;21.140;2023-03-25T07:35:19;98551.92;;;9.52;72.63
64460;BME280;50828;53.756;21.140;2023-03-25T07:40:27;98554.91;;;9.63;72.22
64460;BME280;50828;53.756;21.140;2023-03-25T07:45:36;98552.84;;;9.74;72.39
64460;BME280;50828;53.756;21.140;2023-03-25T07:51:02;98561.20;;;9.90;72.13
64460;BME280;50828;53.756;21.140;2023-03-25T07:56:11;98555.54;;;10.10;71.84
64460;BME280;50828;53.756;21.140;2023-03-25T08:01:18;98558.90;;;10.30;71.47
64460;BME280;50828;53.756;21.140;2023-03-25T08:06:27;98554.44;;;10.42;71.26
64460;BME280;50828;53.756;21.140;2023-03-25T08:11:36;98552.77;;;10.52;71.22
64460;BME280;50828;53.756;21.140;2023-03-25T08:16:45;98552.96;;;10.60;70.75
64460;BME280;50828;53.756;21.140;2023-03-25T08:21:53;98553.77;;;10.63;70.40
64460;BME280;50828;53.756;21.140;2023-03-25T08:27:02;98562.06;;;10.66;70.13
64460;BME280;50828;53.756;21.140;2023-03-25T08:32:21;98560.38;;;10.67;70.18
64460;BME280;50828;53.756;21.140;2023-03-25T08:37:28;98546.14;;;10.75;70.42
64460;BME280;50828;53.756;21.140;2023-03-25T08:42:39;98546.75;;;10.87;70.35
64460;BME280;50828;53.756;21.140;2023-03-25T08:47:47;98540.92;;;11.01;70.18
64460;BME280;50828;53.756;21.140;2023-03-25T08:52:57;98537.84;;;11.13;69.59
64460;BME280;50828;53.756;21.140;2023-03-25T08:58:05;98531.80;;;11.24;69.62
64460;BME280;50828;53.756;21.140;2023-03-25T09:03:15;98523.27;;;11.35;69.66
64460;BME280;50828;53.756;21.140;2023-03-25T09:08:24;98522.27;;;11.47;69.21
64460;BME280;50828;53.756;21.140;2023-03-25T09:13:32;98527.30;;;11.56;68.92
64460;BME280;50828;53.756;21.140;2023-03-25T09:18:41;98531.16;;;11.64;68.80
64460;BME280;50828;53.756;21.140;2023-03-25T09:23:49;98528.75;;;11.73;68.45
64460;BME280;50828;53.756;21.140;2023-03-25T09:28:57;98529.39;;;11.82;68.50
64460;BME280;50828;53.756;21.140;2023-03-25T09:34:07;98529.06;;;11.92;67.99
64460;BME280;50828;53.756;21.140;2023-03-25T09:39:16;98521.58;;;12.03;67.91
64460;BME280;50828;53.756;21.140;2023-03-25T09:44:27;98520.89;;;12.13;67.48
64460;BME280;50828;53.756;21.140;2023-03-25T09:49:41;98522.35;;;12.22;67.35
64460;BME280;50828;53.756;21.140;2023-03-25T09:54:53;98520.25;;;12.29;67.14
64460;BME280;50828;53.756;21.140;2023-03-25T10:00:09;98520.73;;;12.39;66.92
64460;BME280;50828;53.756;21.140;2023-03-25T10:05:35;98511.38;;;12.49;66.71
64460;BME280;50828;53.756;21.140;2023-03-25T10:10:49;98504.59;;;12.57;65.59
64460;BME280;50828;53.756;21.140;2023-03-25T10:16:03;98500.00;;;12.62;64.70
64460;BME280;50828;53.756;21.140;2023-03-25T10:21:18;98496.49;;;12.64;63.79
64460;BME280;50828;53.756;21.140;2023-03-25T10:26:31;98499.85;;;12.66;63.50
64460;BME280;50828;53.756;21.140;2023-03-25T10:31:51;98492.99;;;12.68;63.40
64460;BME280;50828;53.756;21.140;2023-03-25T10:37:02;98489.35;;;12.72;62.91
64460;BME280;50828;53.756;21.140;2023-03-25T10:42:18;98488.28;;;12.79;62.21
64460;BME280;50828;53.756;21.140;2023-03-25T10:47:30;98487.64;;;12.88;62.37
64460;BME280;50828;53.756;21.140;2023-03-25T10:52:40;98484.00;;;12.96;62.16
64460;BME280;50828;53.756;21.140;2023-03-25T10:57:48;98481.64;;;13.07;62.05
64460;BME280;50828;53.756;21.140;2023-03-25T11:02:57;98474.48;;;13.17;61.54
64460;BME280;50828;53.756;21.140;2023-03-25T11:08:07;98468.56;;;13.27;61.45
64460;BME280;50828;53.756;21.140;2023-03-25T11:13:30;98464.96;;;13.38;60.99
64460;BME280;50828;53.756;21.140;2023-03-25T11:18:39;98462.12;;;13.43;60.11
64460;BME280;50828;53.756;21.140;2023-03-25T11:23:51;98467.64;;;13.44;59.62
64460;BME280;50828;53.756;21.140;2023-03-25T11:29:03;98466.02;;;13.42;58.97
64460;BME280;50828;53.756;21.140;2023-03-25T11:34:19;98463.38;;;13.40;58.61
64460;BME280;50828;53.756;21.140;2023-03-25T11:39:35;98462.12;;;13.35;58.80
64460;BME280;50828;53.756;21.140;2023-03-25T11:44:51;98456.01;;;13.30;58.82
64460;BME280;50828;53.756;21.140;2023-03-25T11:50:01;98450.73;;;13.27;58.43
64460;BME280;50828;53.756;21.140;2023-03-25T11:55:18;98435.26;;;13.24;58.31
64460;BME280;50828;53.756;21.140;2023-03-25T12:00:36;98433.26;;;13.22;58.23
64460;BME280;50828;53.756;21.140;2023-03-25T12:05:59;98425.46;;;13.22;58.42
64460;BME280;50828;53.756;21.140;2023-03-25T12:11:09;98417.28;;;13.27;58.21
64460;BME280;50828;53.756;21.140;2023-03-25T12:16:26;98415.36;;;13.36;58.52
64460;BME280;50828;53.756;21.140;2023-03-25T12:21:51;98412.67;;;13.46;58.51
64460;BME280;50828;53.756;21.140;2023-03-25T12:27:16;98414.13;;;13.59;57.91
64460;BME280;50828;53.756;21.140;2023-03-25T12:32:35;98407.20;;;13.64;57.58
64460;BME280;50828;53.756;21.140;2023-03-25T12:38:03;98403.85;;;13.64;57.42
64460;BME280;50828;53.756;21.140;2023-03-25T12:43:20;98401.00;;;13.64;57.41
64460;BME280;50828;53.756;21.140;2023-03-25T12:48:38;98401.03;;;13.66;57.73
64460;BME280;50828;53.756;21.140;2023-03-25T12:53:58;98396.27;;;13.70;57.21
64460;BME280;50828;53.756;21.140;2023-03-25T13:04:50;98394.51;;;13.79;56.62
64460;BME280;50828;53.756;21.140;2023-03-25T13:10:06;98389.07;;;13.76;56.25
64460;BME280;50828;53.756;21.140;2023-03-25T13:15:23;98380.33;;;13.70;56.74
64460;BME280;50828;53.756;21.140;2023-03-25T13:20:35;98371.61;;;13.65;56.86
64460;BME280;50828;53.756;21.140;2023-03-25T13:25:52;98358.13;;;13.60;56.85
64460;BME280;50828;53.756;21.140;2023-03-25T13:31:04;98350.10;;;13.59;56.69
64460;BME280;50828;53.756;21.140;2023-03-25T13:36:18;98346.40;;;13.61;57.03
64460;BME280;50828;53.756;21.140;2023-03-25T13:41:31;98343.48;;;13.67;57.30
64460;BME280;50828;53.756;21.140;2023-03-25T13:46:43;98345.07;;;13.73;56.70
64460;BME280;50828;53.756;21.140;2023-03-25T13:51:55;98337.88;;;13.75;56.81
64460;BME280;50828;53.756;21.140;2023-03-25T13:57:24;98331.83;;;13.80;57.39
64460;BME280;50828;53.756;21.140;2023-03-25T14:08:26;98329.80;;;13.98;56.70
64460;BME280;50828;53.756;21.140;2023-03-25T14:13:39;98323.09;;;14.04;55.44
64460;BME280;50828;53.756;21.140;2023-03-25T14:18:51;98333.75;;;14.06;55.11
64460;BME280;50828;53.756;21.140;2023-03-25T14:24:08;98332.52;;;14.02;54.81
64460;BME280;50828;53.756;21.140;2023-03-25T14:29:31;98335.05;;;13.92;54.13
64460;BME280;50828;53.756;21.140;2023-03-25T14:34:43;98332.73;;;13.81;54.09
64460;BME280;50828;53.756;21.140;2023-03-25T14:39:54;98329.09;;;13.70;54.60
64460;BME280;50828;53.756;21.140;2023-03-25T14:45:36;98328.66;;;13.60;54.75
64460;BME280;50828;53.756;21.140;2023-03-25T14:51:08;98331.45;;;13.47;55.19
64460;BME280;50828;53.756;21.140;2023-03-25T14:56:20;98334.14;;;13.33;56.04
64460;BME280;50828;53.756;21.140;2023-03-25T15:01:32;98340.16;;;13.17;56.65
64460;BME280;50828;53.756;21.140;2023-03-25T15:06:42;98342.69;;;13.03;56.97
64460;BME280;50828;53.756;21.140;2023-03-25T15:11:56;98340.94;;;12.87;57.31
64460;BME280;50828;53.756;21.140;2023-03-25T15:17:08;98339.70;;;12.73;57.70
64460;BME280;50828;53.756;21.140;2023-03-25T15:22:22;98341.57;;;12.60;57.64
64460;BME280;50828;53.756;21.140;2023-03-25T15:33:16;98341.71;;;12.37;57.74
64460;BME280;50828;53.756;21.140;2023-03-25T15:38:45;98329.63;;;12.26;58.21
64460;BME280;50828;53.756;21.140;2023-03-25T15:44:10;98332.43;;;12.17;58.62
64460;BME280;50828;53.756;21.140;2023-03-25T15:55:07;98334.63;;;12.02;58.80
64460;BME280;50828;53.756;21.140;2023-03-25T16:00:21;98335.50;;;11.92;58.61
64460;BME280;50828;53.756;21.140;2023-03-25T16:05:33;98342.92;;;11.82;58.62
64460;BME280;50828;53.756;21.140;2023-03-25T16:10:43;98352.14;;;11.72;58.83
64460;BME280;50828;53.756;21.140;2023-03-25T16:15:52;98363.01;;;11.61;58.97
64460;BME280;50828;53.756;21.140;2023-03-25T16:21:02;98372.29;;;11.49;59.60
64460;BME280;50828;53.756;21.140;2023-03-25T16:26:13;98372.77;;;11.40;59.63
64460;BME280;50828;53.756;21.140;2023-03-25T16:31:30;98373.78;;;11.31;59.82
64460;BME280;50828;53.756;21.140;2023-03-25T16:36:41;98375.13;;;11.22;60.01
64460;BME280;50828;53.756;21.140;2023-03-25T16:41:51;98380.55;;;11.14;60.25
64460;BME280;50828;53.756;21.140;2023-03-25T16:47:00;98377.39;;;11.07;60.14
64460;BME280;50828;53.756;21.140;2023-03-25T16:52:11;98375.58;;;10.99;60.64
64460;BME280;50828;53.756;21.140;2023-03-25T16:57:19;98381.34;;;10.93;60.99
64460;BME280;50828;53.756;21.140;2023-03-25T17:02:30;98383.86;;;10.87;61.08
64460;BME280;50828;53.756;21.140;2023-03-25T17:07:37;98385.20;;;10.78;61.21
64460;BME280;50828;53.756;21.140;2023-03-25T17:12:53;98382.42;;;10.67;61.43
64460;BME280;50828;53.756;21.140;2023-03-25T17:18:04;98378.69;;;10.57;61.47
64460;BME280;50828;53.756;21.140;2023-03-25T17:23:24;98379.13;;;10.48;61.63
64460;BME280;50828;53.756;21.140;2023-03-25T17:28:35;98385.19;;;10.39;61.78
64460;BME280;50828;53.756;21.140;2023-03-25T17:33:48;98389.02;;;10.31;62.35
64460;BME280;50828;53.756;21.140;2023-03-25T17:38:58;98397.18;;;10.25;62.61
64460;BME280;50828;53.756;21.140;2023-03-25T17:44:09;98406.61;;;10.20;63.41
64460;BME280;50828;53.756;21.140;2023-03-25T17:49:21;98415.33;;;10.16;63.86
64460;BME280;50828;53.756;21.140;2023-03-25T17:54:29;98415.48;;;10.08;64.42
64460;BME280;50828;53.756;21.140;2023-03-25T17:59:37;98407.23;;;10.00;65.35
64460;BME280;50828;53.756;21.140;2023-03-25T18:04:44;98389.27;;;9.92;64.89
64460;BME280;50828;53.756;21.140;2023-03-25T18:09:53;98385.45;;;9.83;64.94
64460;BME280;50828;53.756;21.140;2023-03-25T18:15:02;98384.55;;;9.75;65.39
64460;BME280;50828;53.756;21.140;2023-03-25T18:20:17;98386.73;;;9.68;65.65
64460;BME280;50828;53.756;21.140;2023-03-25T18:25:27;98389.52;;;9.63;66.07
64460;BME280;50828;53.756;21.140;2023-03-25T18:30:41;98389.91;;;9.60;66.20
64460;BME280;50828;53.756;21.140;2023-03-25T18:35:49;98386.91;;;9.57;66.41
64460;BME280;50828;53.756;21.140;2023-03-25T18:40:57;98393.05;;;9.55;66.68
64460;BME280;50828;53.756;21.140;2023-03-25T18:46:06;98394.17;;;9.51;66.71
64460;BME280;50828;53.756;21.140;2023-03-25T18:51:14;98392.32;;;9.47;66.74
64460;BME280;50828;53.756;21.140;2023-03-25T18:56:23;98390.00;;;9.42;67.05
64460;BME280;50828;53.756;21.140;2023-03-25T19:01:32;98384.88;;;9.37;67.38
64460;BME280;50828;53.756;21.140;2023-03-25T19:06:40;98382.51;;;9.29;67.28
64460;BME280;50828;53.756;21.140;2023-03-25T19:11:50;98382.46;;;9.22;67.25
64460;BME280;50828;53.756;21.140;2023-03-25T19:16:58;98386.48;;;9.16;67.10
64460;BME280;50828;53.756;21.140;2023-03-25T19:22:09;98385.02;;;9.09;67.07
64460;BME280;50828;53.756;21.140;2023-03-25T19:27:22;98387.67;;;9.00;67.42
64460;BME280;50828;53.756;21.140;2023-03-25T19:32:30;98387.55;;;8.90;67.36
64460;BME280;50828;53.756;21.140;2023-03-25T19:37:39;98384.62;;;8.80;67.12
64460;BME280;50828;53.756;21.140;2023-03-25T19:42:56;98382.05;;;8.71;67.35
64460;BME280;50828;53.756;21.140;2023-03-25T19:48:05;98382.42;;;8.61;67.06
64460;BME280;50828;53.756;21.140;2023-03-25T19:53:14;98384.81;;;8.54;67.18
64460;BME280;50828;53.756;21.140;2023-03-25T19:58:22;98387.90;;;8.46;67.32
64460;BME280;50828;53.756;21.140;2023-03-25T20:03:31;98392.44;;;8.40;67.47
64460;BME280;50828;53.756;21.140;2023-03-25T20:08:41;98398.58;;;8.34;67.36
64460;BME280;50828;53.756;21.140;2023-03-25T20:13:50;98405.18;;;8.29;67.76
64460;BME280;50828;53.756;21.140;2023-03-25T20:19:00;98407.90;;;8.24;68.01
64460;BME280;50828;53.756;21.140;2023-03-25T20:24:08;98411.27;;;8.24;68.25
64460;BME280;50828;53.756;21.140;2023-03-25T20:29:16;98398.32;;;8.23;68.10
64460;BME280;50828;53.756;21.140;2023-03-25T20:34:25;98392.77;;;8.22;68.55
64460;BME280;50828;53.756;21.140;2023-03-25T20:39:32;98390.95;;;8.20;68.67
64460;BME280;50828;53.756;21.140;2023-03-25T20:44:43;98391.73;;;8.19;68.52
64460;BME280;50828;53.756;21.140;2023-03-25T20:49:51;98372.52;;;8.08;68.59
64460;BME280;50828;53.756;21.140;2023-03-25T20:54:59;98390.42;;;8.17;68.77
64460;BME280;50828;53.756;21.140;2023-03-25T21:00:10;98387.89;;;8.15;68.78
64460;BME280;50828;53.756;21.140;2023-03-25T21:05:20;98376.23;;;8.14;68.71
64460;BME280;50828;53.756;21.140;2023-03-25T21:10:28;98379.98;;;8.10;68.85
64460;BME280;50828;53.756;21.140;2023-03-25T21:15:39;98388.33;;;8.08;68.94
64460;BME280;50828;53.756;21.140;2023-03-25T21:20:51;98384.11;;;8.05;68.87
64460;BME280;50828;53.756;21.140;2023-03-25T21:26:01;98382.08;;;8.04;68.78
64460;BME280;50828;53.756;21.140;2023-03-25T21:31:17;98381.06;;;8.00;68.88
64460;BME280;50828;53.756;21.140;2023-03-25T21:36:29;98384.07;;;7.99;68.74
64460;BME280;50828;53.756;21.140;2023-03-25T21:41:37;98387.05;;;7.97;68.83
64460;BME280;50828;53.756;21.140;2023-03-25T21:46:45;98390.80;;;7.95;68.88
64460;BME280;50828;53.756;21.140;2023-03-25T21:51:59;98391.52;;;7.92;69.04
64460;BME280;50828;53.756;21.140;2023-03-25T21:57:08;98386.66;;;7.88;68.94
64460;BME280;50828;53.756;21.140;2023-03-25T22:02:17;98385.64;;;7.84;68.81
64460;BME280;50828;53.756;21.140;2023-03-25T22:07:27;98383.02;;;7.81;68.93
64460;BME280;50828;53.756;21.140;2023-03-25T22:12:35;98380.58;;;7.74;69.10
64460;BME280;50828;53.756;21.140;2023-03-25T22:17:43;98380.66;;;7.70;68.84
64460;BME280;50828;53.756;21.140;2023-03-25T22:22:51;98382.20;;;7.64;69.01
64460;BME280;50828;53.756;21.140;2023-03-25T22:28:00;98375.41;;;7.57;69.03
64460;BME280;50828;53.756;21.140;2023-03-25T22:33:08;98372.05;;;7.51;68.96
64460;BME280;50828;53.756;21.140;2023-03-25T22:38:17;98365.20;;;7.45;69.20
64460;BME280;50828;53.756;21.140;2023-03-25T22:43:26;98363.60;;;7.39;69.22
64460;BME280;50828;53.756;21.140;2023-03-25T22:48:35;98361.50;;;7.33;69.01
64460;BME280;50828;53.756;21.140;2023-03-25T22:53:45;98368.27;;;7.28;68.99
64460;BME280;50828;53.756;21.140;2023-03-25T22:58:55;98367.95;;;7.24;69.25
64460;BME280;50828;53.756;21.140;2023-03-25T23:04:04;98363.96;;;7.20;69.49
64460;BME280;50828;53.756;21.140;2023-03-25T23:09:16;98360.08;;;7.14;69.38
64460;BME280;50828;53.756;21.140;2023-03-25T23:14:50;98359.10;;;7.09;69.59
64460;BME280;50828;53.756;21.140;2023-03-25T23:19:59;98353.80;;;7.04;69.68
64460;BME280;50828;53.756;21.140;2023-03-25T23:25:07;98355.41;;;7.03;69.98
64460;BME280;50828;53.756;21.140;2023-03-25T23:30:16;98353.35;;;6.99;70.01
64460;BME280;50828;53.756;21.140;2023-03-25T23:35:25;98347.20;;;6.96;69.95
64460;BME280;50828;53.756;21.140;2023-03-25T23:40:33;98346.02;;;6.92;69.93
64460;BME280;50828;53.756;21.140;2023-03-25T23:45:42;98347.52;;;6.87;69.91
64460;BME280;50828;53.756;21.140;2023-03-25T23:50:50;98345.32;;;6.82;69.68
64460;BME280;50828;53.756;21.140;2023-03-25T23:55:58;98345.09;;;6.76;69.93
